Time;durP1;ratioP1;P1;durP2;ratioP2;P2;SDS_P1;SDS_P2;PMS_P1;PMS_P2;Temp;Humidity;BMP_temperature;BMP_pressure;BME280_temperature;BME280_humidity;BME280_pressure;Samples;Min_cycle;Max_cycle;Signal;HPM_P1;HPM_P2
2022/09/27 00:00:31;;;;;;;;;;;;;;;23.59;nan;100378.91;5033260;28;1204;-43
2022/09/27 00:02:57;;;;;;;;;;;;;;;23.57;nan;100388.78;5033110;28;987;-41
2022/09/27 00:05:24;;;;;;;;;;;;;;;23.56;nan;100382.63;5032588;28;1975;-43
2022/09/27 00:07:51;;;;;;;;;;;;;;;23.56;nan;100387.94;5033166;28;1037;-43
2022/09/27 00:10:18;;;;;;;;;;;;;;;23.56;nan;100376.50;5032854;28;1318;-42
2022/09/27 00:12:45;;;;;;;;;;;;;;;23.57;nan;100380.81;5033266;28;1042;-42
2022/09/27 00:15:12;;;;;;;;;;;;;;;23.54;nan;100381.06;5035612;28;1569;-43
2022/09/27 00:17:39;;;;;;;;;;;;;;;23.52;nan;100367.06;5036599;28;1040;-42
2022/09/27 00:20:06;;;;;;;;;;;;;;;23.54;nan;100367.78;5036599;28;1600;-42
2022/09/27 00:22:33;;;;;;;;;;;;;;;23.53;nan;100371.44;5036710;28;1110;-42
2022/09/27 00:25:00;;;;;;;;;;;;;;;23.50;nan;100377.00;5036311;28;1918;-42
2022/09/27 00:27:27;;;;;;;;;;;;;;;23.49;nan;100373.50;5036342;28;1035;-43
2022/09/27 00:29:53;;;;;;;;;;;;;;;23.48;nan;100378.91;5036379;28;1221;-41
2022/09/27 00:32:20;;;;;;;;;;;;;;;23.49;nan;100376.16;5068004;28;1019;-42
2022/09/27 00:34:47;;;;;;;;;;;;;;;23.46;nan;100370.25;5035863;28;1103;-42
2022/09/27 00:37:13;;;;;;;;;;;;;;;23.44;nan;100386.28;5035686;28;1133;-41
2022/09/27 00:39:40;;;;;;;;;;;;;;;23.45;nan;100379.16;5035152;28;652;-42
2022/09/27 00:42:11;;;;;;;;;;;;;;;23.45;nan;100384.50;5036078;28;1180;-43
2022/09/27 00:44:38;;;;;;;;;;;;;;;23.44;nan;100378.31;5056912;28;1979;-42
2022/09/27 00:47:08;;;;;;;;;;;;;;;23.44;nan;100377.50;5045200;28;1204;-42
2022/09/27 00:49:37;;;;;;;;;;;;;;;23.45;nan;100368.53;5036161;28;732;-42
2022/09/27 00:52:07;;;;;;;;;;;;;;;23.45;nan;100364.06;5049530;28;1486;-42
2022/09/27 00:54:36;;;;;;;;;;;;;;;23.43;nan;100365.16;5056000;28;906;-42
2022/09/27 00:57:04;;;;;;;;;;;;;;;23.41;nan;100362.63;5087818;28;1205;-42
2022/09/27 00:59:36;;;;;;;;;;;;;;;23.41;nan;100367.13;5047904;28;1001;-42
2022/09/27 01:02:03;;;;;;;;;;;;;;;23.38;nan;100365.50;5044275;28;1741;-41
2022/09/27 01:04:31;;;;;;;;;;;;;;;23.38;nan;100360.19;5052283;28;1975;-42
2022/09/27 01:06:58;;;;;;;;;;;;;;;23.38;nan;100347.75;5054725;28;1310;-42
2022/09/27 01:09:26;;;;;;;;;;;;;;;23.38;nan;100346.91;5054117;28;890;-42
2022/09/27 01:11:55;;;;;;;;;;;;;;;23.36;nan;100349.69;5054873;28;1621;-43
2022/09/27 01:14:41;;;;;;;;;;;;;;;23.36;nan;100351.50;5053776;28;721;-43
2022/09/27 01:17:22;;;;;;;;;;;;;;;23.35;nan;100345.34;5054623;28;1339;-43
2022/09/27 01:19:49;;;;;;;;;;;;;;;23.36;nan;100341.72;5055202;28;1211;-42
2022/09/27 01:22:22;;;;;;;;;;;;;;;23.35;nan;100337.38;5055453;28;1042;-42
2022/09/27 01:25:00;;;;;;;;;;;;;;;23.35;nan;100337.38;5055179;28;1909;-42
2022/09/27 01:27:32;;;;;;;;;;;;;;;23.35;nan;100331.19;5054892;28;1139;-42
2022/09/27 01:30:08;;;;;;;;;;;;;;;23.35;nan;100325.88;5055326;28;1304;-42
2022/09/27 01:32:54;;;;;;;;;;;;;;;23.34;nan;100313.59;5055201;28;1149;-43
2022/09/27 01:35:29;;;;;;;;;;;;;;;23.34;nan;100309.13;5055190;28;1426;-43
2022/09/27 01:38:10;;;;;;;;;;;;;;;23.35;nan;100299.31;5055409;28;1130;-43
2022/09/27 01:40:41;;;;;;;;;;;;;;;23.34;nan;100303.81;5054932;28;1265;-42
2022/09/27 01:43:21;;;;;;;;;;;;;;;23.35;nan;100301.97;5055227;28;1047;-42
2022/09/27 01:45:51;;;;;;;;;;;;;;;23.34;nan;100301.16;5036570;28;1977;-42
2022/09/27 01:48:22;;;;;;;;;;;;;;;23.35;nan;100307.28;5046817;28;1041;-42
2022/09/27 01:51:05;;;;;;;;;;;;;;;23.34;nan;100316.25;5047914;28;1510;-42
2022/09/27 01:53:37;;;;;;;;;;;;;;;23.35;nan;100315.25;5034394;28;1220;-42
2022/09/27 01:56:06;;;;;;;;;;;;;;;23.33;nan;100296.78;5034654;28;1210;-41
2022/09/27 01:58:56;;;;;;;;;;;;;;;23.35;nan;100289.53;5035147;28;1188;-41
2022/09/27 02:01:25;;;;;;;;;;;;;;;23.36;nan;100290.38;5034446;28;1256;-40
2022/09/27 02:03:53;;;;;;;;;;;;;;;23.37;nan;100286.75;5034470;28;1906;-42
2022/09/27 02:06:24;;;;;;;;;;;;;;;23.35;nan;100286.88;5034672;28;1222;-42
2022/09/27 02:08:51;;;;;;;;;;;;;;;23.35;nan;100289.53;5034782;28;954;-42
2022/09/27 02:11:18;;;;;;;;;;;;;;;23.34;nan;100298.50;5034538;28;1205;-42
2022/09/27 02:14:17;;;;;;;;;;;;;;;23.35;nan;100289.53;5034816;28;994;-41
2022/09/27 02:16:43;;;;;;;;;;;;;;;23.35;nan;100294.00;5043540;28;1300;-42
2022/09/27 02:19:28;;;;;;;;;;;;;;;23.38;nan;100283.97;5034259;28;728;-43
2022/09/27 02:22:07;;;;;;;;;;;;;;;23.38;nan;100273.31;5034352;28;1186;-41
2022/09/27 02:28:02;;;;;;;;;;;;;;;23.37;nan;100271.66;5034028;28;1035;-42
2022/09/27 02:30:28;;;;;;;;;;;;;;;23.37;nan;100253.06;5034117;28;1308;-42
2022/09/27 02:32:55;;;;;;;;;;;;;;;23.38;nan;100257.38;5034336;28;1130;-42
2022/09/27 02:35:28;;;;;;;;;;;;;;;23.39;nan;100252.94;5033985;28;1210;-43
2022/09/27 02:37:56;;;;;;;;;;;;;;;23.36;nan;100254.03;5034171;28;1006;-43
2022/09/27 02:40:24;;;;;;;;;;;;;;;23.38;nan;100262.69;5034139;28;1202;-42
2022/09/27 02:42:51;;;;;;;;;;;;;;;23.37;nan;100258.38;5034160;28;1128;-42
2022/09/27 02:45:18;;;;;;;;;;;;;;;23.37;nan;100250.41;5033809;28;1989;-41
2022/09/27 02:47:48;;;;;;;;;;;;;;;23.38;nan;100241.44;5034114;28;1137;-41
2022/09/27 02:50:15;;;;;;;;;;;;;;;23.37;nan;100242.44;5033693;28;1497;-41
2022/09/27 02:52:48;;;;;;;;;;;;;;;23.37;nan;100238.91;5034114;28;1133;-42
2022/09/27 02:55:22;;;;;;;;;;;;;;;23.35;nan;100247.00;5033667;28;1358;-41
2022/09/27 02:58:07;;;;;;;;;;;;;;;23.36;nan;100247.84;5034017;28;1133;-41
2022/09/27 03:00:43;;;;;;;;;;;;;;;23.34;nan;100248.00;5033731;28;1228;-42
2022/09/27 03:03:16;;;;;;;;;;;;;;;23.34;nan;100249.81;5033984;28;1119;-41
2022/09/27 03:05:45;;;;;;;;;;;;;;;23.34;nan;100255.97;5065387;28;1906;-41
2022/09/27 03:08:12;;;;;;;;;;;;;;;23.31;nan;100256.22;5033751;28;1040;-41
2022/09/27 03:10:39;;;;;;;;;;;;;;;23.30;nan;100265.16;5033390;28;1303;-42
2022/09/27 03:13:06;;;;;;;;;;;;;;;23.29;nan;100252.84;5033812;28;1134;-42
2022/09/27 03:15:32;;;;;;;;;;;;;;;23.28;nan;100240.53;5033310;28;1186;-42
2022/09/27 03:17:59;;;;;;;;;;;;;;;23.29;nan;100239.56;5033755;28;931;-42
2022/09/27 03:20:26;;;;;;;;;;;;;;;23.31;nan;100248.25;5033589;28;1202;-43
2022/09/27 03:22:55;;;;;;;;;;;;;;;23.30;nan;100232.44;5033757;28;1153;-43
2022/09/27 03:25:21;;;;;;;;;;;;;;;23.29;nan;100226.25;5032990;28;1976;-42
2022/09/27 03:27:48;;;;;;;;;;;;;;;23.29;nan;100220.09;5033403;28;1021;-43
2022/09/27 03:30:15;;;;;;;;;;;;;;;23.26;nan;100213.22;5033256;28;1216;-42
2022/09/27 03:32:43;;;;;;;;;;;;;;;23.24;nan;100223.16;5033585;28;992;-42
2022/09/27 03:35:10;;;;;;;;;;;;;;;23.24;nan;100209.03;5032960;28;1273;-41
2022/09/27 03:37:37;;;;;;;;;;;;;;;23.24;nan;100220.50;5033009;28;1123;-43
2022/09/27 03:40:04;;;;;;;;;;;;;;;23.24;nan;100214.34;5048336;28;1275;-42
2022/09/27 03:42:31;;;;;;;;;;;;;;;23.25;nan;100211.56;5053414;28;1136;-42
2022/09/27 03:44:58;;;;;;;;;;;;;;;23.29;nan;100212.97;5053303;28;1987;-42
2022/09/27 03:47:24;;;;;;;;;;;;;;;23.28;nan;100205.16;5052747;28;1128;-42
2022/09/27 03:49:51;;;;;;;;;;;;;;;23.29;nan;100199.69;5053812;28;1196;-40
2022/09/27 03:52:18;;;;;;;;;;;;;;;23.30;nan;100204.03;5054962;28;1144;-43
2022/09/27 03:54:45;;;;;;;;;;;;;;;23.29;nan;100198.84;5054831;28;724;-42
2022/09/27 03:57:11;;;;;;;;;;;;;;;23.28;nan;100206.00;5054849;28;1160;-42
2022/09/27 03:59:38;;;;;;;;;;;;;;;23.25;nan;100192.13;5055134;28;918;-43
2022/09/27 04:02:05;;;;;;;;;;;;;;;23.22;nan;100210.97;5054699;28;1229;-40
2022/09/27 04:04:31;;;;;;;;;;;;;;;23.22;nan;100198.50;5050889;28;1979;-42
2022/09/27 04:06:58;;;;;;;;;;;;;;;23.23;nan;100194.88;5039440;28;1288;-41
2022/09/27 04:09:25;;;;;;;;;;;;;;;23.22;nan;100203.81;5036656;28;745;-42
2022/09/27 04:11:51;;;;;;;;;;;;;;;23.22;nan;100205.66;5055287;28;1471;-42
2022/09/27 04:14:18;;;;;;;;;;;;;;;23.20;nan;100205.78;5056762;28;913;-41
2022/09/27 04:16:45;;;;;;;;;;;;;;;23.20;nan;100205.78;5056476;28;1295;-42
2022/09/27 04:19:12;;;;;;;;;;;;;;;23.22;nan;100203.00;5056785;28;895;-42
2022/09/27 04:21:38;;;;;;;;;;;;;;;23.21;nan;100210.13;5056404;28;1331;-41
2022/09/27 04:24:05;;;;;;;;;;;;;;;23.20;nan;100224.38;5051209;28;1653;-42
2022/09/27 04:26:32;;;;;;;;;;;;;;;23.19;nan;100214.72;5040081;28;1962;-42
2022/09/27 04:28:59;;;;;;;;;;;;;;;23.18;nan;100210.38;5045751;28;803;-42
2022/09/27 04:31:25;;;;;;;;;;;;;;;23.18;nan;100199.75;5056216;28;1309;-43
2022/09/27 04:33:53;;;;;;;;;;;;;;;23.19;nan;100203.25;5045376;28;753;-43
2022/09/27 04:36:27;;;;;;;;;;;;;;;23.19;nan;100195.28;5067866;28;1305;-42
2022/09/27 04:38:54;;;;;;;;;;;;;;;23.19;nan;100204.09;5051563;28;692;-42
2022/09/27 04:41:22;;;;;;;;;;;;;;;23.19;nan;100201.41;5036373;28;1212;-42
2022/09/27 04:43:49;;;;;;;;;;;;;;;23.18;nan;100197.09;5036303;28;756;-43
2022/09/27 04:46:20;;;;;;;;;;;;;;;23.18;nan;100205.06;5035921;28;1947;-42
2022/09/27 04:48:47;;;;;;;;;;;;;;;23.17;nan;100208.69;5035313;28;924;-42
2022/09/27 04:51:17;;;;;;;;;;;;;;;23.18;nan;100202.41;5035279;28;1463;-42
2022/09/27 04:53:44;;;;;;;;;;;;;;;23.19;nan;100206.75;5036285;28;1288;-43
2022/09/27 04:56:11;;;;;;;;;;;;;;;23.19;nan;100203.25;5036373;28;1281;-43
2022/09/27 04:58:38;;;;;;;;;;;;;;;23.19;nan;100208.56;5036337;28;1261;-42
2022/09/27 05:01:06;;;;;;;;;;;;;;;23.20;nan;100199.63;5034483;28;1311;-42
2022/09/27 05:03:32;;;;;;;;;;;;;;;23.18;nan;100212.19;5038649;28;1613;-39
2022/09/27 05:05:59;;;;;;;;;;;;;;;23.20;nan;100204.94;5047694;28;1918;-42
2022/09/27 05:08:26;;;;;;;;;;;;;;;23.20;nan;100215.56;5050053;28;1160;-42
2022/09/27 05:10:53;;;;;;;;;;;;;;;23.18;nan;100207.72;5055936;28;1304;-42
2022/09/27 05:13:20;;;;;;;;;;;;;;;23.18;nan;100207.72;5055840;28;1057;-41
2022/09/27 05:15:47;;;;;;;;;;;;;;;23.18;nan;100205.06;5070586;28;1197;-42
2022/09/27 05:18:14;;;;;;;;;;;;;;;23.19;nan;100212.06;5055716;28;1374;-41
2022/09/27 05:20:41;;;;;;;;;;;;;;;23.18;nan;100213.03;5049875;28;1810;-43
2022/09/27 05:23:07;;;;;;;;;;;;;;;23.17;nan;100203.38;5043282;28;1676;-43
2022/09/27 05:25:34;;;;;;;;;;;;;;;23.18;nan;100202.41;5039348;28;1991;-40
2022/09/27 05:28:01;;;;;;;;;;;;;;;23.18;nan;100199.75;5054506;28;1790;-42
2022/09/27 05:30:28;;;;;;;;;;;;;;;23.15;nan;100199.16;5047352;28;1251;-43
2022/09/27 05:32:55;;;;;;;;;;;;;;;23.16;nan;100204.34;5038264;28;1596;-43
2022/09/27 05:35:21;;;;;;;;;;;;;;;;;;5051934;28;1497;-42
2022/09/27 05:37:56;;;;;;;;;;;;;;;23.16;nan;100212.31;5055528;28;1013;-43
2022/09/27 05:40:24;;;;;;;;;;;;;;;23.19;nan;100211.25;5054687;28;1206;-43
2022/09/27 05:43:07;;;;;;;;;;;;;;;23.17;nan;100223.78;5055094;28;1164;-42
2022/09/27 05:45:34;;;;;;;;;;;;;;;23.15;nan;100223.94;5054178;28;1969;-42
2022/09/27 05:48:00;;;;;;;;;;;;;;;;;;5054872;28;953;-43
2022/09/27 05:50:27;;;;;;;;;;;;;;;;;;5054552;28;1483;-42
2022/09/27 05:52:54;;;;;;;;;;;;;;;23.14;nan;100238.16;5055062;28;1087;-42
2022/09/27 05:55:20;;;;;;;;;;;;;;;;;;5054807;28;1229;-41
2022/09/27 05:57:47;;;;;;;;;;;;;;;;;;5054835;28;1098;-41
2022/09/27 06:00:14;;;;;;;;;;;;;;;23.17;nan;100237.91;5083024;28;1614;-40
2022/09/27 06:02:42;;;;;;;;;;;;;;;23.17;nan;100239.72;5062127;28;956;-41
2022/09/27 06:05:09;;;;;;;;;;;;;;;23.18;nan;100228.13;5043848;28;1980;-42
2022/09/27 06:07:36;;;;;;;;;;;;;;;23.15;nan;100229.25;5040062;28;1311;-43
2022/09/27 06:10:03;;;;;;;;;;;;;;;23.14;nan;100238.16;5045024;28;1236;-42
2022/09/27 06:12:30;;;;;;;;;;;;;;;23.12;nan;100248.09;5052783;28;1052;-42
2022/09/27 06:14:57;;;;;;;;;;;;;;;23.11;nan;100238.44;5050417;28;1312;-42
2022/09/27 06:17:23;;;;;;;;;;;;;;;23.12;nan;100244.59;5048702;28;1128;-46
2022/09/27 06:19:50;;;;;;;;;;;;;;;23.11;nan;100248.22;5065548;28;1293;-42
2022/09/27 06:22:17;;;;;;;;;;;;;;;23.12;nan;100245.44;5038465;28;1443;-42
2022/09/27 06:24:43;;;;;;;;;;;;;;;23.12;nan;100247.25;5047032;28;809;-42
2022/09/27 06:27:10;;;;;;;;;;;;;;;23.13;nan;100247.09;5034489;28;1988;-41
2022/09/27 06:29:37;;;;;;;;;;;;;;;23.12;nan;100256.06;5034772;28;934;-41
2022/09/27 06:32:04;;;;;;;;;;;;;;;23.12;nan;100258.72;5031630;28;1332;-40
2022/09/27 06:34:31;;;;;;;;;;;;;;;23.17;nan;100256.50;5031528;28;910;-43
2022/09/27 06:36:58;;;;;;;;;;;;;;;23.20;nan;100258.06;5031264;28;1267;-41
2022/09/27 06:39:24;;;;;;;;;;;;;;;23.21;nan;100259.75;5030710;28;738;-44
2022/09/27 06:41:58;;;;;;;;;;;;;;;23.19;nan;100264.38;5037258;28;1213;-42
2022/09/27 06:44:25;;;;;;;;;;;;;;;23.19;nan;100270.50;5031265;28;804;-42
2022/09/27 06:46:52;;;;;;;;;;;;;;;23.17;nan;100279.56;5037100;28;1914;-43
2022/09/27 06:49:18;;;;;;;;;;;;;;;23.20;nan;100276.66;5032466;28;938;-43
2022/09/27 06:51:45;;;;;;;;;;;;;;;23.20;nan;100268.69;5069028;28;1445;-43
2022/09/27 06:54:12;;;;;;;;;;;;;;;23.18;nan;100263.53;5033290;28;747;-42
2022/09/27 06:56:38;;;;;;;;;;;;;;;23.19;nan;100262.53;5037329;28;1277;-43
2022/09/27 07:01:51;;;;;;;;;;;;;;;23.20;nan;100274.84;5048482;28;1264;-42
2022/09/27 07:04:18;;;;;;;;;;;;;;;23.21;nan;100281.88;5050268;28;1180;-41
2022/09/27 07:06:45;;;;;;;;;;;;;;;23.20;nan;100290.81;5047756;28;1906;-41
2022/09/27 07:09:13;;;;;;;;;;;;;;;23.20;nan;100296.13;5048207;28;1208;-42
2022/09/27 07:11:42;;;;;;;;;;;;;;;23.20;nan;100301.44;5046776;28;1296;-42
2022/09/27 07:14:09;;;;;;;;;;;;;;;23.20;nan;100306.75;5045249;28;1126;-42
2022/09/27 07:16:36;;;;;;;;;;;;;;;23.19;nan;100307.69;5049177;28;1280;-43
2022/09/27 07:19:06;;;;;;;;;;;;;;;23.20;nan;100301.44;5047144;28;1025;-42
2022/09/27 07:21:33;;;;;;;;;;;;;;;22.21;nan;100311.22;5049287;28;1355;-43
2022/09/27 07:24:00;;;;;;;;;;;;;;;21.56;nan;100307.44;5047473;28;1013;-41
2022/09/27 07:26:26;;;;;;;;;;;;;;;21.25;nan;100319.47;5047799;28;1898;-42
2022/09/27 07:28:53;;;;;;;;;;;;;;;20.79;nan;100321.13;5049228;28;1228;-43
2022/09/27 07:31:20;;;;;;;;;;;;;;;21.32;nan;100327.81;5047616;28;1319;-42
2022/09/27 07:33:46;;;;;;;;;;;;;;;21.91;nan;100323.34;5047751;28;1258;-43
2022/09/27 07:36:13;;;;;;;;;;;;;;;22.29;nan;100324.72;5047436;28;1640;-42
2022/09/27 07:38:40;;;;;;;;;;;;;;;22.51;nan;100333.66;5046705;28;1175;-40
2022/09/27 07:41:08;;;;;;;;;;;;;;;22.63;nan;100338.84;5046173;28;1284;-38
2022/09/27 07:43:34;;;;;;;;;;;;;;;22.72;nan;100338.13;5039673;28;1048;-41
2022/09/27 07:46:01;;;;;;;;;;;;;;;22.78;nan;100345.59;5032797;28;1908;-41
2022/09/27 07:48:28;;;;;;;;;;;;;;;22.83;nan;100339.91;5035792;28;1178;-41
2022/09/27 07:50:55;;;;;;;;;;;;;;;22.87;nan;100344.03;5032448;28;1395;-42
2022/09/27 07:53:23;;;;;;;;;;;;;;;22.91;nan;100353.44;5034555;28;1270;-41
2022/09/27 07:55:51;;;;;;;;;;;;;;;22.94;nan;100350.53;5049087;28;1434;-42
2022/09/27 07:58:19;;;;;;;;;;;;;;;22.98;nan;100349.31;5040737;28;1133;-42
2022/09/27 08:00:46;;;;;;;;;;;;;;;22.98;nan;100344.00;5032401;28;1236;-41
2022/09/27 08:03:14;;;;;;;;;;;;;;;23.02;nan;100349.91;5032257;28;1108;-42
2022/09/27 08:05:46;;;;;;;;;;;;;;;23.01;nan;100351.72;5030421;28;1981;-40
2022/09/27 08:08:13;;;;;;;;;;;;;;;23.04;nan;100351.47;5045893;28;1762;-42
2022/09/27 08:10:43;;;;;;;;;;;;;;;23.06;nan;100354.00;5049900;28;1346;-41
2022/09/27 08:13:10;;;;;;;;;;;;;;;23.08;nan;100360.88;5045972;28;1019;-41
2022/09/27 08:15:37;;;;;;;;;;;;;;;23.11;nan;100363.28;5030578;28;1348;-42
2022/09/27 08:18:05;;;;;;;;;;;;;;;23.11;nan;100359.78;5033811;28;1098;-42
2022/09/27 08:20:32;;;;;;;;;;;;;;;23.11;nan;100363.28;5033302;28;1248;-41
2022/09/27 08:22:58;;;;;;;;;;;;;;;23.13;nan;100373.81;5032921;28;970;-41
2022/09/27 08:25:27;;;;;;;;;;;;;;;23.14;nan;100368.34;5032213;28;1375;-40
2022/09/27 08:27:57;;;;;;;;;;;;;;;23.15;nan;100366.53;5032017;28;1981;-42
2022/09/27 08:30:24;;;;;;;;;;;;;;;23.15;nan;100367.41;5032726;28;1391;-43
2022/09/27 08:32:55;;;;;;;;;;;;;;;23.18;nan;100369.81;5031882;28;1099;-41
2022/09/27 08:35:22;;;;;;;;;;;;;;;23.19;nan;100374.13;5035908;28;1305;-41
2022/09/27 08:37:56;;;;;;;;;;;;;;;23.18;nan;100377.78;5043457;28;1751;-41
2022/09/27 08:40:26;;;;;;;;;;;;;;;23.22;nan;100373.88;5039460;28;1331;-42
2022/09/27 08:43:04;;;;;;;;;;;;;;;23.22;nan;100371.22;5047089;28;1025;-42
2022/09/27 08:45:39;;;;;;;;;;;;;;;23.25;nan;100373.66;5048767;28;1248;-43
2022/09/27 08:48:08;;;;;;;;;;;;;;;23.27;nan;100377.03;5041198;28;965;-42
2022/09/27 08:50:43;;;;;;;;;;;;;;;23.25;nan;100368.34;5032149;28;1968;-42
2022/09/27 08:53:12;;;;;;;;;;;;;;;23.21;nan;100361.59;5044955;28;1130;-43
2022/09/27 08:55:42;;;;;;;;;;;;;;;23.18;nan;100356.53;5065237;28;1366;-43
2022/09/27 08:58:27;;;;;;;;;;;;;;;23.18;nan;100359.19;5044983;28;1108;-43
2022/09/27 09:00:56;;;;;;;;;;;;;;;23.19;nan;100363.50;5033055;28;1343;-43
2022/09/27 09:03:24;;;;;;;;;;;;;;;23.18;nan;100372.47;5050174;28;1086;-43
2022/09/27 09:05:51;;;;;;;;;;;;;;;;;;5053892;28;1910;-43
2022/09/27 09:08:18;;;;;;;;;;;;;;;23.18;nan;100380.44;5053505;28;1123;-43
2022/09/27 09:13:54;;;;;;;;;;;;;;;23.18;nan;100371.63;5047903;28;1179;-42
2022/09/27 09:16:21;;;;;;;;;;;;;;;;;;5035440;28;1340;-42
2022/09/27 09:18:47;;;;;;;;;;;;;;;;;;5039959;28;1013;-43
2022/09/27 09:21:30;;;;;;;;;;;;;;;23.15;nan;100361.22;5034893;28;1293;-41
2022/09/27 09:24:20;;;;;;;;;;;;;;;23.14;nan;100365.69;5038516;28;1106;-41
2022/09/27 09:26:49;;;;;;;;;;;;;;;23.18;nan;100372.47;5049479;28;1977;-43
2022/09/27 09:29:28;;;;;;;;;;;;;;;23.19;nan;100374.13;5044338;28;1095;-42
2022/09/27 09:31:59;;;;;;;;;;;;;;;23.20;nan;100375.81;5066195;28;1267;-43
2022/09/27 09:34:26;;;;;;;;;;;;;;;;;;5036361;28;944;-42
2022/09/27 09:37:00;;;;;;;;;;;;;;;23.13;nan;100382.59;5034031;28;1331;-42
2022/09/27 09:39:26;;;;;;;;;;;;;;;;;;5037076;28;1541;-42
2022/09/27 09:42:05;;;;;;;;;;;;;;;23.15;nan;100383.34;5034589;28;1359;-41
2022/09/27 09:44:41;;;;;;;;;;;;;;;23.18;nan;100387.56;5036626;28;1085;-43
2022/09/27 09:47:16;;;;;;;;;;;;;;;23.21;nan;100387.31;5045255;28;1910;-42
2022/09/27 09:49:45;;;;;;;;;;;;;;;23.24;nan;100387.91;5048650;28;1024;-41
2022/09/27 09:52:19;;;;;;;;;;;;;;;23.25;nan;100389.59;5053326;28;1515;-41
2022/09/27 09:54:55;;;;;;;;;;;;;;;23.27;nan;100381.50;5040064;28;1083;-39
2022/09/27 09:57:27;;;;;;;;;;;;;;;23.28;nan;100372.56;5053274;28;945;-42
2022/09/27 09:59:58;;;;;;;;;;;;;;;23.25;nan;100381.63;5041964;28;1391;-41
2022/09/27 10:02:28;;;;;;;;;;;;;;;23.28;nan;100384.03;5034350;28;1002;-41
2022/09/27 10:04:55;;;;;;;;;;;;;;;23.28;nan;100381.38;5071449;28;1370;-41
2022/09/27 10:07:22;;;;;;;;;;;;;;;23.29;nan;100383.06;5034148;28;1993;-43
2022/09/27 10:09:54;;;;;;;;;;;;;;;23.30;nan;100382.09;5051052;28;1359;-42
2022/09/27 10:12:21;;;;;;;;;;;;;;;23.31;nan;100382.94;5053510;28;961;-41
2022/09/27 10:14:48;;;;;;;;;;;;;;;23.31;nan;100382.94;5046094;28;1337;-42
2022/09/27 10:17:17;;;;;;;;;;;;;;;23.32;nan;100390.78;5053387;28;1221;-43
2022/09/27 10:19:44;;;;;;;;;;;;;;;23.32;nan;100393.44;5040796;28;869;-44
2022/09/27 10:22:15;;;;;;;;;;;;;;;23.33;nan;100397.78;5046177;28;1797;-43
2022/09/27 10:24:54;;;;;;;;;;;;;;;23.32;nan;100390.78;5038838;28;878;-42
2022/09/27 10:27:22;;;;;;;;;;;;;;;23.33;nan;100386.31;5046942;28;1997;-41
2022/09/27 10:29:55;;;;;;;;;;;;;;;23.34;nan;100382.69;5036243;28;1258;-41
2022/09/27 10:32:29;;;;;;;;;;;;;;;23.35;nan;100374.56;5036972;28;1089;-41
2022/09/27 10:35:16;;;;;;;;;;;;;;;23.37;nan;100382.44;5037640;28;1324;-39
2022/09/27 10:37:48;;;;;;;;;;;;;;;23.38;nan;100386.75;5033919;28;1009;-41
2022/09/27 10:40:26;;;;;;;;;;;;;;;23.36;nan;100381.59;5068926;28;1275;-42
2022/09/27 10:42:53;;;;;;;;;;;;;;;23.37;nan;100367.34;5047128;28;1002;-41
2022/09/27 10:45:30;;;;;;;;;;;;;;;23.36;nan;100363.00;5038325;28;1272;-42
2022/09/27 10:48:01;;;;;;;;;;;;;;;23.36;nan;100360.34;5033458;28;1967;-42
2022/09/27 10:50:32;;;;;;;;;;;;;;;23.36;nan;100360.34;5036633;28;1566;-38
2022/09/27 10:53:20;;;;;;;;;;;;;;;23.37;nan;100372.66;5061556;28;1936;-40
2022/09/27 10:55:48;;;;;;;;;;;;;;;23.36;nan;100364.78;5032654;28;1213;-43
2022/09/27 10:58:21;;;;;;;;;;;;;;;23.38;nan;100357.53;5031240;28;1076;-40
2022/09/27 11:00:55;;;;;;;;;;;;;;;23.41;nan;100356.50;5044069;28;1217;-41
2022/09/27 11:03:24;;;;;;;;;;;;;;;23.42;nan;100355.50;5049455;28;1042;-43
2022/09/27 11:05:53;;;;;;;;;;;;;;;23.42;nan;100355.50;5035617;28;1355;-43
2022/09/27 11:08:27;;;;;;;;;;;;;;;23.43;nan;100346.56;5031691;28;1910;-42
2022/09/27 11:11:09;;;;;;;;;;;;;;;23.43;nan;100338.59;5032392;28;1391;-42
2022/09/27 11:13:36;;;;;;;;;;;;;;;23.42;nan;100334.25;5039701;28;1069;-42
2022/09/27 11:16:03;;;;;;;;;;;;;;;23.40;nan;100334.38;5045204;28;1366;-41
2022/09/27 11:18:49;;;;;;;;;;;;;;;23.41;nan;100329.91;5036028;28;1265;-41
2022/09/27 11:21:30;;;;;;;;;;;;;;;23.41;nan;100327.25;5031846;28;1256;-42
2022/09/27 11:24:06;;;;;;;;;;;;;;;23.41;nan;100325.41;5038424;28;954;-43
2022/09/27 11:26:56;;;;;;;;;;;;;;;23.40;nan;100323.75;5032888;28;1984;-39
2022/09/27 11:29:23;;;;;;;;;;;;;;;23.41;nan;100324.59;5041197;28;757;-42
2022/09/27 11:32:08;;;;;;;;;;;;;;;23.41;nan;100321.94;5032709;28;1339;-41
2022/09/27 11:34:53;;;;;;;;;;;;;;;23.42;nan;100318.28;5037012;28;877;-42
2022/09/27 11:37:35;;;;;;;;;;;;;;;23.39;nan;100322.91;5039145;28;1106;-40
2022/09/27 11:40:02;;;;;;;;;;;;;;;23.38;nan;100321.16;5050153;28;1410;-40
2022/09/27 11:42:42;;;;;;;;;;;;;;;23.39;nan;100333.53;5084169;28;1070;-39
2022/09/27 11:45:27;;;;;;;;;;;;;;;23.39;nan;100341.50;5039166;28;1525;-40
2022/09/27 11:48:32;;;;;;;;;;;;;;;23.40;nan;100342.34;5065065;28;2153;-38
2022/09/27 11:51:07;;;;;;;;;;;;;;;23.40;nan;100345.00;5034698;28;1507;-39
2022/09/27 11:53:49;;;;;;;;;;;;;;;23.41;nan;100345.88;5048512;28;987;-39
2022/09/27 11:56:39;;;;;;;;;;;;;;;23.41;nan;100356.50;5034830;28;1303;-37
2022/09/27 11:59:06;;;;;;;;;;;;;;;23.42;nan;100363.47;5044073;28;1673;-40
2022/09/27 12:01:51;;;;;;;;;;;;;;;23.45;nan;100357.91;5043488;28;1322;-39
2022/09/27 12:04:30;;;;;;;;;;;;;;;23.45;nan;100358.75;5044173;28;1211;-43
2022/09/27 12:07:30;;;;;;;;;;;;;;;23.45;nan;100355.25;5036604;28;1918;-41
2022/09/27 12:10:01;;;;;;;;;;;;;;;23.46;nan;100365.78;5053139;28;1249;-40
2022/09/27 12:12:31;;;;;;;;;;;;;;;23.46;nan;100341.84;5038994;28;1174;-41
2022/09/27 12:15:00;;;;;;;;;;;;;;;23.47;nan;100346.16;5045904;28;1324;-37
2022/09/27 12:17:38;;;;;;;;;;;;;;;23.49;nan;100352.22;5037981;28;1074;-40
2022/09/27 12:20:23;;;;;;;;;;;;;;;23.48;nan;100339.03;5040926;28;1280;-41
2022/09/27 12:22:50;;;;;;;;;;;;;;;23.47;nan;100326.75;5036200;28;1096;-41
2022/09/27 12:25:28;;;;;;;;;;;;;;;23.47;nan;100326.75;5040940;28;1300;-39
2022/09/27 12:28:01;;;;;;;;;;;;;;;23.47;nan;100324.91;5036211;28;1894;-40
2022/09/27 12:30:30;;;;;;;;;;;;;;;23.47;nan;100321.44;5045922;28;1397;-39
2022/09/27 12:33:03;;;;;;;;;;;;;;;23.47;nan;100311.63;5069564;28;1512;-42
2022/09/27 12:35:34;;;;;;;;;;;;;;;23.50;nan;100319.34;5048896;28;1336;-41
2022/09/27 12:38:05;;;;;;;;;;;;;;;23.50;nan;100326.50;5042502;28;1576;-41
2022/09/27 12:40:33;;;;;;;;;;;;;;;23.48;nan;100321.28;5047613;28;1376;-42
2022/09/27 12:43:05;;;;;;;;;;;;;;;23.50;nan;100314.00;5046475;28;1117;-42
2022/09/27 12:45:50;;;;;;;;;;;;;;;23.54;nan;100304.81;5041321;28;1324;-43
2022/09/27 12:48:36;;;;;;;;;;;;;;;23.57;nan;100303.72;5070970;28;2001;-41
2022/09/27 12:51:08;;;;;;;;;;;;;;;23.58;nan;100298.28;5041072;28;1618;-41
2022/09/27 12:53:50;;;;;;;;;;;;;;;23.59;nan;100294.63;5038493;28;1097;-41
2022/09/27 12:56:20;;;;;;;;;;;;;;;23.60;nan;100298.16;5040168;28;1355;-40
2022/09/27 12:58:58;;;;;;;;;;;;;;;23.57;nan;100293.09;5065787;28;1127;-41
2022/09/27 13:01:31;;;;;;;;;;;;;;;23.59;nan;100296.47;5046924;28;1324;-40
2022/09/27 13:04:16;;;;;;;;;;;;;;;23.59;nan;100288.50;5047701;28;893;-35
2022/09/27 13:06:47;;;;;;;;;;;;;;;23.60;nan;100279.53;5036513;28;1299;-43
2022/09/27 13:09:20;;;;;;;;;;;;;;;23.60;nan;100276.88;5039347;28;933;-40
2022/09/27 13:11:48;;;;;;;;;;;;;;;23.59;nan;100275.22;5035690;28;1323;-38
2022/09/27 13:14:20;;;;;;;;;;;;;;;23.59;nan;100267.22;5038449;28;862;-37
2022/09/27 13:16:47;;;;;;;;;;;;;;;23.59;nan;100264.56;5034610;28;1359;-39
2022/09/27 13:19:33;;;;;;;;;;;;;;;23.60;nan;100266.25;5038180;28;881;-39
2022/09/27 13:22:00;;;;;;;;;;;;;;;23.60;nan;100252.94;5032933;28;1298;-42
2022/09/27 13:24:36;;;;;;;;;;;;;;;23.61;nan;100251.97;5041000;28;940;-42
2022/09/27 13:27:23;;;;;;;;;;;;;;;23.61;nan;100254.63;5037984;28;1906;-40
2022/09/27 13:29:51;;;;;;;;;;;;;;;23.60;nan;100260.91;5049256;28;1419;-42
2022/09/27 13:32:25;;;;;;;;;;;;;;;23.61;nan;100260.81;5051183;28;1347;-42
2022/09/27 13:34:52;;;;;;;;;;;;;;;23.61;nan;100274.09;5035735;28;1292;-42
2022/09/27 13:37:28;;;;;;;;;;;;;;;23.62;nan;100277.59;5033793;28;1026;-42
2022/09/27 13:40:14;;;;;;;;;;;;;;;23.61;nan;100279.41;5034592;28;1296;-42
2022/09/27 13:42:49;;;;;;;;;;;;;;;23.61;nan;100287.41;5047396;28;973;-41